• Join FlightAware (Why Join?)
  • Login
  • US Flag 
07:12AM EDT


 

Airport Tracker/Info


-or-


 

Live Flight TrackerFlight Track Log ✈ TRS9347 ✈ 15-May-2013 ✈ KVQQ - KATL

Flight Track Log - Related Links

Times and Time Zones

All times are in EDT time to prevent confusion due to time zone crossing. See the TRS9347 flight status page for this flight to view local times or setup timezone preferences in your user account.

Time Position Orientation Groundspeed Altitude Reporting Facility
EDT Latitude Longitude Course Direction KTS MPH feet Rate Location/Type
12:30AM 30.2606 -81.9114 306° West 213 245 3,000  Level Jacksonville Center
12:31AM 30.2817 -81.9447 306° West 270 311 4,900 4,800 Climbing Jacksonville Center
12:32AM 30.3531 -81.9850 334° Northwest 287 330 9,800 3,960 Climbing Jacksonville Center
12:33AM 30.4767 -82.0297 343° North 319 367 15,100 3,660 Climbing Jacksonville Center
12:35AM 30.6692 -82.1028 342° North 356 410 22,800 3,600 Climbing Jacksonville Center
12:36AM 30.7697 -82.1431 341° North 374 430 26,000 2,580 Climbing Jacksonville Center
12:37AM 30.8742 -82.1808 343° North 379 436 28,000 960 Climbing Jacksonville Center
12:38AM 30.9789 -82.2214 342° North 384 442 28,000  Level Jacksonville Center
12:39AM 31.0814 -82.2594 342° North 384 442 28,000  Level Jacksonville Center
12:40AM 31.1756 -82.3267 329° Northwest 384 442 28,000  Level Jacksonville Center
12:41AM 31.2783 -82.3992 329° Northwest 400 460 28,000  Level Jacksonville Center
12:42AM 31.3911 -82.4739 331° Northwest 420 483 28,000  Level Jacksonville Center
12:43AM 31.4917 -82.5492 327° Northwest 420 483 28,000  Level Jacksonville Center
12:44AM 31.5961 -82.6194 330° Northwest 425 489 28,000  Level Jacksonville Center
12:46AM 31.7564 -82.7369 328° Northwest 424 488 28,000  Level Atlanta Center
12:47AM 31.8511 -82.8164 325° Northwest 424 488 28,000  Level Atlanta Center
12:48AM 31.9458 -82.9008 323° Northwest 429 494 28,000  Level Atlanta Center
12:49AM 32.0406 -82.9853 323° Northwest 429 494 28,000  Level Atlanta Center
12:50AM 32.1331 -83.0700 322° Northwest 429 494 28,000  Level Atlanta Center
12:51AM 32.2278 -83.1550 323° Northwest 424 488 28,000  Level Atlanta Center
12:52AM 32.3222 -83.2400 323° Northwest 424 488 28,000  Level Atlanta Center
12:53AM 32.4186 -83.3228 324° Northwest 424 488 28,000  Level Atlanta Center
12:54AM 32.5131 -83.4131 321° Northwest 429 494 28,000  Level Atlanta Center
12:55AM 32.6075 -83.4989 323° Northwest 429 494 28,000  Level Atlanta Center
12:56AM 32.7017 -83.5822 323° Northwest 424 488 28,000  Level Atlanta Center
12:57AM 32.7958 -83.6706 322° Northwest 424 488 28,000 -2,100 Level Atlanta Center
12:58AM 32.8942 -83.7642 321° Northwest 424 488 23,900 -4,200 Descending Atlanta Center
12:59AM 32.9758 -83.8333 325° Northwest 424 488 19,600 -3,960 Descending Atlanta Center
01:00AM 33.0697 -83.8975 330° Northwest 405 466 16,000 -3,240 Descending Atlanta Center
01:01AM 33.1658 -83.9469 337° Northwest 386 444 13,200 -2,940 Descending Atlanta Center
01:02AM 33.2703 -84.0042 335° Northwest 375 432 10,200 -1,860 Descending Atlanta Center
01:03AM 33.3539 -84.0489 336° Northwest 345 397 9,500 -1,200 Descending Atlanta Center
01:04AM 33.4269 -84.0886 336° Northwest 310 357 7,900 -1,680 Descending Atlanta Center
01:05AM 33.5000 -84.1333 333° Northwest 285 328 6,100 -1,500 Descending Atlanta TRACON
01:06AM 33.5667 -84.1667 337° Northwest 262 302 4,900 -960 Descending Atlanta TRACON
01:07AM 33.6333 -84.2000 337° Northwest 226 260 4,200 -600 Descending Atlanta TRACON
01:08AM 33.6500 -84.2500 292° West 189 217 3,700 -840 Descending Atlanta TRACON
01:09AM 33.6500 -84.3167 270° West 164 189 2,500 -900 Descending Atlanta TRACON
01:10AM 33.6500 -84.3500 270° West 119 137 1,900 -600 Descending Atlanta TRACON
01:11AM 33.6500 -84.3833 270° West 110 127 1,400 -540 Descending Atlanta TRACON
01:13AM 33.6333 -84.4167 275° West  Level FlightAware Approximate
01:20AM 33.6367 -84.4279 275° West  Level Estimated